Logo AVAMET
Benvolgut visitant, si us plau, ingressa Recuperar contrasenya

Castelló de Rugat

Dades diàries. Acumulats / Últims 30 dies disponibles

Data Temperatura (°C) Humitat rel. (%) Pressió rel. (hPa) Vent (km/h) Precipitació
Mínima Mitjana Màxima Amplitud
tèrmica
Mínima Mitjana Màxima Mínima Mitjana Màxima Predom. Mitjana Ràfega
màxima
Total
(mm)
Índex-n
Mínima Mitjana Màxima Mínima Mitjana Màxima n
0 a 1
P0 max
mm 5'
Dades mensuals acumulades fins l'últim dia disponible
01/2020 2,8 6,3 12,2 9,9 8,2 14,7 18,8 16,0 34 76 96 1.012 1.025 1.034   3,8 75,6 298,2
Dades anuals acumulades fins l'últim dia disponible
2020 2,8 6,3 12,2 9,9 8,2 14,7 18,8 16,0 34 76 96 1.012 1.025 1.034   3,8 75,6 298,2
Últims 30 dies disponibles
28-01-2020 12,2     13,8     15,6 3,4 65 71 75 1.021 1.022 1.024 SW 6,6 33,8 0,0
27-01-2020 6,9     11,1     16,0 9,1 53 67 79 1.021 1.023 1.025 SW 4,7 32,2 0,0
26-01-2020 8,4     11,5     16,7 8,3 55 74 93 1.018 1.021 1.025 SW 2,4 19,3 0,0
25-01-2020 7,2     9,5     12,2 5,0 84 91 95 1.017 1.019 1.021 SW 1,1 11,3 0,4
24-01-2020 6,7     8,7     10,3 3,6 89 93 94 1.021 1.022 1.023 SW 1,0 11,3 0,2
23-01-2020 5,1     8,3     12,0 6,9 78 88 94 1.019 1.021 1.023 WSW 2,9 19,3 0,2
22-01-2020 5,9     8,3     11,7 5,8 83 91 95 1.017 1.019 1.020 WSW 1,3 9,7 0,2
21-01-2020 5,3     8,6     12,3 7,0 84 92 96 1.012 1.015 1.020 SW 5,8 43,5 81,2 0,48 5,70
20-01-2020 2,8     6,1     8,2 5,4 90 93 95 1.017 1.019 1.020 NNE 20,1 75,6 139,8 0,34 4,40
19-01-2020 5,3     8,4     14,3 9,0 69 83 93 1.015 1.017 1.020 SW 14,6 72,4 69,8 0,50 2,60
18-01-2020 8,2     12,4     17,0 8,8 49 64 75 1.020 1.027 1.032 SW 3,1 33,8 0,0
17-01-2020 10,5     13,9     18,8 8,3 42 52 65 1.027 1.029 1.032 SW 3,7 24,1 0,0
16-01-2020 8,4     13,0     17,4 9,0 55 66 77 1.026 1.027 1.029 SW 3,2 17,7 0,0
15-01-2020 7,7     12,3     18,1 10,4 43 59 72 1.023 1.025 1.028 SW 2,3 20,9 0,0
14-01-2020 7,1     10,9     17,1 10,0 36 52 63 1.020 1.022 1.023 SW 2,4 17,7 0,0
13-01-2020 3,9     9,9     17,1 13,2 34 54 75 1.022 1.025 1.030 SW 2,9 24,1 0,0
12-01-2020 3,7     8,6     14,8 11,1 38 61 80 1.028 1.030 1.031 WSW 2,1 11,3 0,0
11-01-2020 5,4     9,2     13,6 8,2 59 75 89 1.028 1.030 1.032 WSW 1,6 9,7 0,0
10-01-2020 8,1     9,7     13,7 5,6 55 76 90 1.023 1.025 1.029 NE 5,8 45,1 5,0 0,32 0,60
09-01-2020 4,2     9,1     14,9 10,7 63 83 95 1.024 1.028 1.031 NE 2,3 25,7 0,2
08-01-2020 6,0     9,9     15,2 9,2 55 75 94 1.028 1.030 1.031 SW 1,8 11,3 0,0
07-01-2020 5,1     9,7     16,3 11,2 54 79 94 1.028 1.030 1.032 W 1,8 9,7 0,2
06-01-2020 6,7     9,8     15,2 8,5 57 80 90 1.027 1.029 1.031 WSW 2,4 12,9 0,0
05-01-2020 5,7     10,6     17,1 11,4 40 69 86 1.027 1.029 1.032 WSW 1,9 9,7 0,0
04-01-2020 4,9     8,9     13,9 9,0 63 81 94 1.031 1.032 1.034 WSW 2,7 20,9 0,2
03-01-2020 5,4     9,2     16,5 11,1 56 84 94 1.029 1.031 1.033 WSW 2,1 14,5 0,4
02-01-2020 4,3     7,8     12,8 8,5 74 89 96 1.030 1.031 1.033 NNE 1,1 9,7 0,2
01-01-2020 4,8     8,8     13,9 9,1 68 85 94 1.030 1.032 1.033 NE 2,3 12,9 0,2
31-12-2019 4,7     8,8     13,8 9,1 68 84 94 1.031 1.032 1.035 SSE 1,8 12,9 0,2
30-12-2019 7,5     10,0     14,4 6,9 65 84 94 1.032 1.032 1.034 NE 1,9 12,9 0,0
Últims 13 mesos disponibles
12/2019 4,4 9,5 17,0 13,0 10,9 17,4 24,4 20,0 43 71 95 1.002 1.019 1.032 SW 4,4 77,2 181,8
11/2019 4,3 10,4 19,1 14,0 14,3 18,6 25,9 21,6 52 62 78 999 1.011 1.019 SW 4,7 82,1 17,4
10/2019 10,4 15,2 18,8 19,4 14,3 24,6 33,3 22,9 41 66 91 1.008 1.016 1.022 SW 3,3 40,2 49,0
09/2019 12,7 18,7 21,5 22,5 19,4 27,0 33,2 20,5 45 79 96 1.009 1.016 1.023 NE 5,5 78,9 158,8
08/2019 16,9 20,7 25,3 25,5 25,7 31,5 41,5 24,6 18 77 95 1.010 1.014 1.017 S 6,6 48,1 42,1
07/2019 19,3 21,0 24,9 26,1 26,2 31,3 38,4 19,1 9 71 92 978 1.012 1.019 SE 8,6 72,9 0,5
06/2019 11,7 16,7 21,5 22,1 20,0 27,9 34,8 23,1 25 66 92 1.008 1.014 1.019 SE 6,8 40,7 0,0
05/2019 8,5 13,4 19,1 18,1 17,2 23,3 30,6 22,1 49 73 94 1.004 1.013 1.022 SE 6,2 40,7 9,7
04/2019 7,1 10,4 13,4 14,2 11,5 18,8 28,1 21,0 23 75 100 997 1.010 1.021 S 6,4 52,2 316,9
03/2019 4,8 9,0 15,3 13,8 11,7 19,3 27,6 22,8 12 54 99 1.008 1.020 1.026 SE 5,4 39,6 67,3
02/2019 1,4 6,6 11,8 11,5 11,7 17,3 23,8 22,4 12 63 97 995 1.021 1.029 S 5,0 43,1 0,0
01/2019 -0,3 5,8 11,0 10,3 11,1 16,0 20,8 21,1 29 57 90 1.001 1.016 1.027 S 3,9 37,0 4,0
12/2018 4,2 8,5 13,8 12,6 11,6 17,9 24,9 20,7 32 70 99 989 1.019 1.027 SSO 3,2 24,8 27,1
Tots els anys disponibles
2019 -0,3 13,1 25,3 17,5 10,9 22,7 41,5 41,8 9 68 100 978 1.015 1.032 SW 5,6 82,1 847,5
2018 0,6 13,2 24,5 17,4 5,3 22,3 37,0 36,4 17 70 100 989 1.015 1.031 SE 5,0 74,0 662,4
2017 -1,5 13,1 28,7 17,8 4,8 22,4 38,0 39,5 20 68 99 997 1.018 1.032 S 0,1 73,0 540,1
2016 1,3 13,1 25,8 17,7 7,0 22,3 40,4 39,1 17 63 100 995 1.017 1.034 72,0 909,9
2015 2,4 14,4 27,7 19,1 8,7 23,8 42,2 39,8 11 63 97 1.006 1.019 1.033 69,0 411,1
Temperatura (°C)
Humitat relativa (%)
Velocitat del vent i ràfega màxima (km/h)
Direcció del vent (°)
Pressió (hPa)
Precipitació (mm)
Nota sobre les dades: s'avisa a l'usuari de la provisionalitat i no oficialitat d'aquestes dades
Logo AVAMET blanc
Web allotjada a Sollutia
Llicència de Creative CommonsLa web d'AVAMET i els seus continguts estan subjectes a una llicència de
Reconeixement - No Comercial - Compartir igual
Últimes estacions: Xixona - Els Ameradors (Soci), Agres - El Tossal (Soci), Xàbia - Bevenguts (MeteoXàbia), Llíria (Aj. Soci/Inforatge), Orihuela - Lo Capitán, Cox & Guardamar del Segura - horta (Meteorihuela), l'Alcúdia - Carriona & el Real de Gandia (Inforatge), Benicàssim - les Vil·les (Soci),  l'Alfàs del Pi - l'Albir (Soci), - - -